createdAt,value
2023-04-30T00:00:16.359Z,13.75
2023-04-30T00:02:44.404Z,13.79
2023-04-30T00:05:12.364Z,13.86
2023-04-30T00:07:42.498Z,13.71
2023-04-30T00:10:11.180Z,13.65
2023-04-30T00:12:39.095Z,13.68
2023-04-30T00:15:07.354Z,13.62
2023-04-30T00:17:35.285Z,13.70
2023-04-30T00:20:03.323Z,13.60
2023-04-30T00:22:31.273Z,13.56
2023-04-30T00:24:59.181Z,13.59
2023-04-30T00:27:27.029Z,13.49
2023-04-30T00:29:55.491Z,13.57
2023-04-30T00:32:23.730Z,13.40
2023-04-30T00:34:51.660Z,13.49
2023-04-30T00:37:19.490Z,13.43
2023-04-30T00:39:47.356Z,13.29
2023-04-30T00:42:15.262Z,13.23
2023-04-30T00:44:43.251Z,13.15
2023-04-30T00:47:11.245Z,13.18
2023-04-30T00:49:39.253Z,13.21
2023-04-30T00:52:07.298Z,13.07
2023-04-30T00:54:35.387Z,13.11
2023-04-30T00:57:05.802Z,13.23
2023-04-30T00:59:33.849Z,13.17
2023-04-30T01:02:03.123Z,13.13
2023-04-30T01:04:33.051Z,13.25
2023-04-30T01:07:02.307Z,13.22
2023-04-30T01:09:30.395Z,13.30
2023-04-30T01:12:20.908Z,13.23
2023-04-30T01:15:02.087Z,13.16
2023-04-30T01:17:39.751Z,13.19
2023-04-30T01:20:11.995Z,13.09
2023-04-30T01:22:48.769Z,13.14
2023-04-30T01:25:34.845Z,13.17
2023-04-30T01:28:09.589Z,13.17
2023-04-30T01:30:40.680Z,13.07
2023-04-30T01:33:09.371Z,13.07
2023-04-30T01:36:01.716Z,13.11
2023-04-30T01:39:11.289Z,13.17
2023-04-30T01:41:55.851Z,13.05
2023-04-30T01:44:44.548Z,13.01
2023-04-30T01:47:28.642Z,13.10
2023-04-30T01:50:11.331Z,12.99
2023-04-30T01:52:39.356Z,13.00
2023-04-30T01:55:35.295Z,12.96
2023-04-30T01:58:07.090Z,12.96
2023-04-30T02:00:35.486Z,12.87
2023-04-30T02:03:04.021Z,12.80
2023-04-30T02:05:32.062Z,12.82
2023-04-30T02:08:00.852Z,12.92
2023-04-30T02:10:30.366Z,12.91
2023-04-30T02:12:58.213Z,12.91
2023-04-30T02:15:26.095Z,12.97
2023-04-30T02:17:54.033Z,12.82
2023-04-30T02:20:21.944Z,12.88
2023-04-30T02:22:49.801Z,12.89
2023-04-30T02:25:17.745Z,12.83
2023-04-30T02:27:46.229Z,12.80
2023-04-30T02:30:14.180Z,12.80
2023-04-30T02:32:42.150Z,12.71
2023-04-30T02:35:10.787Z,12.82
2023-04-30T02:37:38.748Z,12.74
2023-04-30T02:40:07.502Z,12.73
2023-04-30T02:42:35.314Z,12.89
2023-04-30T02:45:05.133Z,12.78
2023-04-30T02:47:33.026Z,12.77
2023-04-30T02:50:01.205Z,12.73
2023-04-30T02:52:29.132Z,12.70
2023-04-30T02:54:57.036Z,12.66
2023-04-30T02:57:24.941Z,12.75
2023-04-30T02:59:53.203Z,12.64
2023-04-30T03:02:23.497Z,12.73
2023-04-30T03:04:52.112Z,12.67
2023-04-30T03:07:19.973Z,12.79
2023-04-30T03:09:48.164Z,12.71
2023-04-30T03:12:16.349Z,12.65
2023-04-30T03:14:44.241Z,12.59
2023-04-30T03:17:12.120Z,12.57
2023-04-30T03:19:40.032Z,12.58
2023-04-30T03:22:07.889Z,12.63
2023-04-30T03:24:35.745Z,12.69
2023-04-30T03:27:03.897Z,12.54
2023-04-30T03:29:31.790Z,12.55
2023-04-30T03:31:59.738Z,12.66
2023-04-30T03:34:27.585Z,12.59
2023-04-30T03:36:55.612Z,12.61
2023-04-30T03:39:23.488Z,12.54
2023-04-30T03:41:51.314Z,12.48
2023-04-30T03:44:19.258Z,12.50
2023-04-30T03:46:47.213Z,12.53
2023-04-30T03:49:15.092Z,12.43
2023-04-30T03:51:42.944Z,12.42
2023-04-30T03:54:10.787Z,12.50
2023-04-30T03:56:39.247Z,12.57
2023-04-30T03:59:07.268Z,12.39
2023-04-30T04:01:35.379Z,12.35
2023-04-30T04:04:03.518Z,12.44
2023-04-30T04:06:33.073Z,12.35
2023-04-30T04:09:00.973Z,12.31
2023-04-30T04:11:29.011Z,12.24
2023-04-30T04:13:57.800Z,12.21
2023-04-30T04:16:26.111Z,12.22
2023-04-30T04:18:54.006Z,12.14
2023-04-30T04:21:22.597Z,12.09
2023-04-30T04:23:50.784Z,12.13
2023-04-30T04:26:21.576Z,12.05
2023-04-30T04:28:49.543Z,12.10
2023-04-30T04:31:18.113Z,12.06
2023-04-30T04:33:46.911Z,12.14
2023-04-30T04:36:14.833Z,12.14
2023-04-30T04:38:43.743Z,12.12
2023-04-30T04:41:11.647Z,12.05
2023-04-30T04:43:39.921Z,12.05
2023-04-30T04:46:10.101Z,12.03
2023-04-30T04:48:39.052Z,12.14
2023-04-30T04:51:06.892Z,12.17
2023-04-30T04:53:34.997Z,12.27
2023-04-30T04:56:03.413Z,12.22
2023-04-30T04:58:31.643Z,12.39
2023-04-30T05:01:00.172Z,12.47
2023-04-30T05:03:29.065Z,12.43
2023-04-30T05:05:57.221Z,12.47
2023-04-30T05:08:25.081Z,12.46
2023-04-30T05:10:53.668Z,12.58
2023-04-30T05:13:21.592Z,12.57
2023-04-30T05:15:54.118Z,12.60
2023-04-30T05:18:22.265Z,12.56
2023-04-30T05:20:50.204Z,12.57
2023-04-30T05:23:18.296Z,12.60
2023-04-30T05:25:46.229Z,12.55
2023-04-30T05:28:14.120Z,12.58
2023-04-30T05:30:41.941Z,12.60
2023-04-30T05:33:09.845Z,12.56
2023-04-30T05:35:37.780Z,12.69
2023-04-30T05:38:05.750Z,12.78
2023-04-30T05:40:33.997Z,12.76
2023-04-30T05:43:01.838Z,12.73
2023-04-30T05:45:29.837Z,12.70
2023-04-30T05:47:57.861Z,12.92
2023-04-30T05:50:25.797Z,12.89
2023-04-30T05:52:53.680Z,12.87
2023-04-30T05:55:21.779Z,12.92
2023-04-30T05:57:49.639Z,12.84
2023-04-30T06:00:17.656Z,12.86
2023-04-30T06:02:45.925Z,12.87
2023-04-30T06:05:16.124Z,12.95
2023-04-30T06:07:44.507Z,12.90
2023-04-30T06:10:12.783Z,12.81
2023-04-30T06:12:40.967Z,12.88
2023-04-30T06:15:09.011Z,12.86
2023-04-30T06:17:37.170Z,12.84
2023-04-30T06:20:07.216Z,12.94
2023-04-30T06:22:35.180Z,12.98
2023-04-30T06:25:03.599Z,13.06
2023-04-30T06:27:32.475Z,13.31
2023-04-30T06:30:03.663Z,13.35
2023-04-30T06:32:32.860Z,13.20
2023-04-30T06:35:01.930Z,13.20
2023-04-30T06:37:30.999Z,13.19
2023-04-30T06:39:59.763Z,13.17
2023-04-30T06:42:27.734Z,13.10
2023-04-30T06:44:55.782Z,13.10
2023-04-30T06:47:23.648Z,13.05
2023-04-30T06:49:51.617Z,13.22
2023-04-30T06:52:19.609Z,13.15
2023-04-30T06:54:48.528Z,13.20
2023-04-30T06:57:16.676Z,13.26
2023-04-30T06:59:44.690Z,13.44
2023-04-30T07:02:12.670Z,13.47
2023-04-30T07:04:40.548Z,13.40
2023-04-30T07:07:08.958Z,13.50
2023-04-30T07:09:36.958Z,13.51
2023-04-30T07:12:04.827Z,13.52
2023-04-30T07:14:33.106Z,13.52
2023-04-30T07:17:01.884Z,13.48
2023-04-30T07:19:35.699Z,13.60
2023-04-30T07:22:03.602Z,13.49
2023-04-30T07:24:31.527Z,13.49
2023-04-30T07:27:02.914Z,13.58
2023-04-30T07:29:31.281Z,13.73
2023-04-30T07:31:59.188Z,13.62
2023-04-30T07:34:27.974Z,13.74
2023-04-30T07:36:55.986Z,13.74
2023-04-30T07:39:23.801Z,13.74
2023-04-30T07:41:51.733Z,13.79
2023-04-30T07:44:19.701Z,13.72
2023-04-30T07:46:47.584Z,13.67
2023-04-30T07:49:15.861Z,13.78
2023-04-30T07:51:43.774Z,13.86
2023-04-30T07:54:11.774Z,13.93
2023-04-30T07:56:39.774Z,13.96
2023-04-30T07:59:07.613Z,14.01
2023-04-30T08:01:35.881Z,13.85
2023-04-30T08:04:03.941Z,13.81
2023-04-30T08:06:31.994Z,13.89
2023-04-30T08:08:59.896Z,13.96
2023-04-30T08:11:27.874Z,13.97
2023-04-30T08:13:55.780Z,14.00
2023-04-30T08:16:23.714Z,14.09
2023-04-30T08:18:51.749Z,14.07
2023-04-30T08:21:19.727Z,14.28
2023-04-30T08:23:47.873Z,14.35
2023-04-30T08:26:15.808Z,14.34
2023-04-30T08:28:43.972Z,14.27
2023-04-30T08:31:12.758Z,14.14
2023-04-30T08:33:41.249Z,14.11
2023-04-30T08:36:09.157Z,14.28
2023-04-30T08:38:37.018Z,14.41
2023-04-30T08:41:07.035Z,14.63
2023-04-30T08:43:38.288Z,14.62
2023-04-30T08:46:06.973Z,14.45
2023-04-30T08:48:34.926Z,14.35
2023-04-30T08:51:04.024Z,14.11
2023-04-30T08:53:35.673Z,14.32
2023-04-30T08:56:04.313Z,14.59
2023-04-30T08:58:32.472Z,14.61
2023-04-30T09:01:01.510Z,14.50
2023-04-30T09:03:31.490Z,14.72
2023-04-30T09:05:59.560Z,14.92
2023-04-30T09:08:45.228Z,14.92
2023-04-30T09:11:29.157Z,14.89
2023-04-30T09:14:02.363Z,14.77
2023-04-30T09:16:45.540Z,14.73
2023-04-30T09:19:28.481Z,14.76
2023-04-30T09:21:57.250Z,14.80
2023-04-30T09:24:25.346Z,14.86
2023-04-30T09:26:53.731Z,14.73
2023-04-30T09:29:21.772Z,14.80
2023-04-30T09:31:49.662Z,14.93
2023-04-30T09:34:17.554Z,14.96
2023-04-30T09:36:56.572Z,14.86
2023-04-30T09:39:24.585Z,14.83
2023-04-30T09:41:52.500Z,14.89
2023-04-30T09:44:31.898Z,14.99
2023-04-30T09:47:00.185Z,14.99
2023-04-30T09:49:28.304Z,15.03
2023-04-30T09:51:57.630Z,14.99
2023-04-30T09:54:28.802Z,14.95
2023-04-30T09:56:58.897Z,15.00
2023-04-30T09:59:32.427Z,15.05
2023-04-30T10:02:02.296Z,15.16
2023-04-30T10:04:38.913Z,15.13
2023-04-30T10:07:17.556Z,15.18
2023-04-30T10:09:51.334Z,15.10
2023-04-30T10:12:25.006Z,15.05
2023-04-30T10:15:01.824Z,15.19
2023-04-30T10:17:33.763Z,15.34
2023-04-30T10:20:07.387Z,15.38
2023-04-30T10:22:36.032Z,15.27
2023-04-30T10:25:04.116Z,15.32
2023-04-30T10:27:33.330Z,15.38
2023-04-30T10:30:01.432Z,15.38
2023-04-30T10:32:41.131Z,15.43
2023-04-30T10:35:14.629Z,15.35
2023-04-30T10:37:57.941Z,15.47
2023-04-30T10:40:28.823Z,15.77
2023-04-30T10:42:56.928Z,15.70
2023-04-30T10:45:39.271Z,15.90
2023-04-30T10:48:07.429Z,15.82
2023-04-30T10:50:46.622Z,16.10
2023-04-30T10:53:17.080Z,16.32
2023-04-30T10:55:52.820Z,15.87
2023-04-30T10:58:40.288Z,15.79
2023-04-30T11:01:20.744Z,15.52
2023-04-30T11:04:09.641Z,15.56
2023-04-30T11:06:52.743Z,15.61
2023-04-30T11:09:34.941Z,15.68
2023-04-30T11:12:04.444Z,15.59
2023-04-30T11:14:34.112Z,15.50
2023-04-30T11:17:02.470Z,15.54
2023-04-30T11:19:30.277Z,15.52
2023-04-30T11:22:05.192Z,15.52
2023-04-30T11:24:51.537Z,15.44
2023-04-30T11:27:30.693Z,15.58
2023-04-30T11:29:59.544Z,15.59
2023-04-30T11:32:34.850Z,15.55
2023-04-30T11:35:06.790Z,15.41
2023-04-30T11:37:37.898Z,15.57
2023-04-30T11:40:10.865Z,15.66
2023-04-30T11:42:47.097Z,15.71
2023-04-30T11:45:23.535Z,15.78
2023-04-30T11:47:53.312Z,15.75
2023-04-30T11:50:29.413Z,15.84
2023-04-30T11:52:58.745Z,15.83
2023-04-30T11:55:28.242Z,15.85
2023-04-30T11:57:58.753Z,15.86
2023-04-30T12:00:29.377Z,15.77
2023-04-30T12:03:01.236Z,15.79
2023-04-30T12:05:29.464Z,15.75
2023-04-30T12:08:00.497Z,15.77
2023-04-30T12:10:28.294Z,15.80
2023-04-30T12:12:56.280Z,15.80
2023-04-30T12:15:29.057Z,15.85
2023-04-30T12:17:58.992Z,15.68
2023-04-30T12:20:29.258Z,15.65
2023-04-30T12:22:58.475Z,15.72
2023-04-30T12:25:28.985Z,15.78
2023-04-30T12:27:59.300Z,15.79
2023-04-30T12:30:27.626Z,15.80
2023-04-30T12:32:58.848Z,15.75
2023-04-30T12:35:31.102Z,15.76
2023-04-30T12:38:04.856Z,15.91
2023-04-30T12:40:33.659Z,16.04
2023-04-30T12:43:02.548Z,16.01
2023-04-30T12:45:54.199Z,16.11
2023-04-30T12:48:24.463Z,16.35
2023-04-30T12:51:02.056Z,16.57
2023-04-30T12:53:30.098Z,16.64
2023-04-30T12:56:16.561Z,16.51
2023-04-30T12:58:47.448Z,16.49
2023-04-30T13:01:19.445Z,16.47
2023-04-30T13:03:48.216Z,16.92
2023-04-30T13:06:16.605Z,17.17
2023-04-30T13:08:57.020Z,17.38
2023-04-30T13:11:27.529Z,17.62
2023-04-30T13:13:56.683Z,17.04
2023-04-30T13:16:26.120Z,16.81
2023-04-30T13:18:54.865Z,16.79
2023-04-30T13:21:24.798Z,16.83
2023-04-30T13:23:54.503Z,16.47
2023-04-30T13:26:24.073Z,16.51
2023-04-30T13:28:52.068Z,16.55
2023-04-30T13:31:20.484Z,16.43
2023-04-30T13:33:49.050Z,16.33
2023-04-30T13:36:17.221Z,16.25
2023-04-30T13:38:45.051Z,16.31
2023-04-30T13:41:13.124Z,16.39
2023-04-30T13:43:44.844Z,16.42
2023-04-30T13:46:12.857Z,16.79
2023-04-30T13:48:41.165Z,17.04
2023-04-30T13:51:09.537Z,17.61
2023-04-30T13:53:37.574Z,18.05
2023-04-30T13:56:06.556Z,17.87
2023-04-30T13:58:34.444Z,17.80
2023-04-30T14:01:02.908Z,17.25
2023-04-30T14:03:31.201Z,17.33
2023-04-30T14:05:59.189Z,17.20
2023-04-30T14:08:27.304Z,17.09
2023-04-30T14:10:56.407Z,16.96
2023-04-30T14:13:24.537Z,16.91
2023-04-30T14:15:52.487Z,16.83
2023-04-30T14:18:22.752Z,16.77
2023-04-30T14:20:50.976Z,16.80
2023-04-30T14:23:19.154Z,16.81
2023-04-30T14:25:47.634Z,16.76
2023-04-30T14:28:15.549Z,16.75
2023-04-30T14:30:43.650Z,16.80
2023-04-30T14:33:12.941Z,16.73
2023-04-30T14:35:41.638Z,16.62
2023-04-30T14:38:09.595Z,16.68
2023-04-30T14:40:37.475Z,16.58
2023-04-30T14:43:05.363Z,16.59
2023-04-30T14:45:33.736Z,16.60
2023-04-30T14:48:03.964Z,16.62
2023-04-30T14:50:33.343Z,16.72
2023-04-30T14:53:01.231Z,16.86
2023-04-30T14:55:29.130Z,16.84
2023-04-30T14:57:57.212Z,16.77
2023-04-30T15:00:25.199Z,16.82
2023-04-30T15:02:53.089Z,16.77
2023-04-30T15:05:21.315Z,16.82
2023-04-30T15:07:49.212Z,16.72
2023-04-30T15:10:17.045Z,16.71
2023-04-30T15:12:45.136Z,16.66
2023-04-30T15:15:13.100Z,16.61
2023-04-30T15:17:41.461Z,16.60
2023-04-30T15:20:09.866Z,16.59
2023-04-30T15:22:37.792Z,16.65
2023-04-30T15:25:06.146Z,16.56
2023-04-30T15:27:34.088Z,16.54
2023-04-30T15:30:02.035Z,16.47
2023-04-30T15:32:30.082Z,16.40
2023-04-30T15:34:58.092Z,16.40
2023-04-30T15:37:26.164Z,16.28
2023-04-30T15:39:54.135Z,16.35
2023-04-30T15:42:22.146Z,16.45
2023-04-30T15:44:50.561Z,16.43
2023-04-30T15:47:19.106Z,16.56
2023-04-30T15:49:48.702Z,16.60
2023-04-30T15:52:16.524Z,16.55
2023-04-30T15:54:44.414Z,16.58
2023-04-30T15:57:12.493Z,16.77
2023-04-30T15:59:40.710Z,16.99
2023-04-30T16:02:08.653Z,16.97
2023-04-30T16:04:36.484Z,16.91
2023-04-30T16:07:04.831Z,16.89
2023-04-30T16:09:32.884Z,16.78
2023-04-30T16:12:00.708Z,16.62
2023-04-30T16:14:28.736Z,16.64
2023-04-30T16:16:56.974Z,16.53
2023-04-30T16:19:24.828Z,16.55
2023-04-30T16:21:52.986Z,16.42
2023-04-30T16:24:20.902Z,16.43
2023-04-30T16:26:48.856Z,16.44
2023-04-30T16:29:16.706Z,16.34
2023-04-30T16:31:44.588Z,16.34
2023-04-30T16:34:12.418Z,16.30
2023-04-30T16:36:41.723Z,16.38
2023-04-30T16:39:09.679Z,16.27
2023-04-30T16:41:37.517Z,16.24
2023-04-30T16:44:05.515Z,16.19
2023-04-30T16:46:33.492Z,16.18
2023-04-30T16:49:01.564Z,16.28
2023-04-30T16:51:29.623Z,16.30
2023-04-30T16:53:57.579Z,16.28
2023-04-30T16:56:26.368Z,16.22
2023-04-30T16:58:54.663Z,16.17
2023-04-30T17:01:22.687Z,16.08
2023-04-30T17:03:51.533Z,16.15
2023-04-30T17:06:19.657Z,15.96
2023-04-30T17:08:48.143Z,16.02
2023-04-30T17:11:19.223Z,16.02
2023-04-30T17:13:47.295Z,15.89
2023-04-30T17:16:15.182Z,15.97
2023-04-30T17:18:43.146Z,15.90
2023-04-30T17:21:11.070Z,15.92
2023-04-30T17:23:40.954Z,15.89
2023-04-30T17:26:09.818Z,15.87
2023-04-30T17:28:37.672Z,15.75
2023-04-30T17:31:07.461Z,15.64
2023-04-30T17:33:35.386Z,15.63
2023-04-30T17:36:03.316Z,15.68
2023-04-30T17:38:31.271Z,15.67
2023-04-30T17:40:59.132Z,15.66
2023-04-30T17:43:27.627Z,15.57
2023-04-30T17:45:57.239Z,15.31
2023-04-30T17:48:25.185Z,15.34
2023-04-30T17:50:54.377Z,15.12
2023-04-30T17:53:25.298Z,15.22
2023-04-30T17:55:53.626Z,15.17
2023-04-30T17:58:21.456Z,15.22
2023-04-30T18:00:49.306Z,15.17
2023-04-30T18:03:17.278Z,15.12
2023-04-30T18:05:45.491Z,15.07
2023-04-30T18:08:13.306Z,14.96
2023-04-30T18:10:41.122Z,14.89
2023-04-30T18:13:10.266Z,14.84
2023-04-30T18:15:38.130Z,14.91
2023-04-30T18:18:06.381Z,14.87
2023-04-30T18:20:34.550Z,14.68
2023-04-30T18:23:02.788Z,14.63
2023-04-30T18:25:30.753Z,14.73
2023-04-30T18:27:59.689Z,14.59
2023-04-30T18:30:27.845Z,14.52
2023-04-30T18:32:55.759Z,14.64
2023-04-30T18:35:23.843Z,14.65
2023-04-30T18:37:51.650Z,14.71
2023-04-30T18:40:20.313Z,14.66
2023-04-30T18:42:48.175Z,14.68
2023-04-30T18:45:16.252Z,14.70
2023-04-30T18:47:45.116Z,14.70
2023-04-30T18:50:17.358Z,14.67
2023-04-30T18:52:45.253Z,14.65
2023-04-30T18:55:13.886Z,14.61
2023-04-30T18:57:43.243Z,14.49
2023-04-30T19:00:13.183Z,14.46
2023-04-30T19:02:41.296Z,14.46
2023-04-30T19:05:09.243Z,14.39
2023-04-30T19:07:37.104Z,14.35
2023-04-30T19:10:05.392Z,14.28
2023-04-30T19:12:34.209Z,14.35
2023-04-30T19:15:02.050Z,14.28
2023-04-30T19:17:29.956Z,14.26
2023-04-30T19:20:00.060Z,14.28
2023-04-30T19:22:28.411Z,14.19
2023-04-30T19:24:56.249Z,14.16
2023-04-30T19:27:24.177Z,14.13
2023-04-30T19:29:53.334Z,14.11
2023-04-30T19:32:21.587Z,14.06
2023-04-30T19:34:49.516Z,13.92
2023-04-30T19:37:17.370Z,13.88
2023-04-30T19:39:45.332Z,13.74
2023-04-30T19:42:13.214Z,13.68
2023-04-30T19:44:41.238Z,13.66
2023-04-30T19:47:09.203Z,13.62
2023-04-30T19:49:37.139Z,13.60
2023-04-30T19:52:05.347Z,13.38
2023-04-30T19:54:33.228Z,13.40
2023-04-30T19:57:02.051Z,13.44
2023-04-30T19:59:30.493Z,13.37
2023-04-30T20:01:59.565Z,13.14
2023-04-30T20:04:27.510Z,13.16
2023-04-30T20:06:57.479Z,13.23
2023-04-30T20:09:26.089Z,13.15
2023-04-30T20:11:54.704Z,13.09
2023-04-30T20:14:24.122Z,13.06
2023-04-30T20:16:54.974Z,13.00
2023-04-30T20:19:22.981Z,12.95
2023-04-30T20:21:50.879Z,13.00
2023-04-30T20:24:19.358Z,12.77
2023-04-30T20:26:47.629Z,12.78
2023-04-30T20:29:15.815Z,12.75
2023-04-30T20:31:43.807Z,12.81
2023-04-30T20:34:11.843Z,12.73
2023-04-30T20:36:39.926Z,12.67
2023-04-30T20:39:08.711Z,12.65
2023-04-30T20:41:36.585Z,12.65
2023-04-30T20:44:05.745Z,12.56
2023-04-30T20:46:34.311Z,12.45
2023-04-30T20:49:04.633Z,12.45
2023-04-30T20:51:32.727Z,12.49
2023-04-30T20:54:01.078Z,12.44
2023-04-30T20:56:29.336Z,12.59
2023-04-30T20:58:57.159Z,12.71
2023-04-30T21:01:25.129Z,12.55
2023-04-30T21:03:53.145Z,12.76
2023-04-30T21:06:21.194Z,12.76
2023-04-30T21:08:49.434Z,12.84
2023-04-30T21:11:18.973Z,12.87
2023-04-30T21:16:14.938Z,12.89
2023-04-30T21:18:44.478Z,12.82
2023-04-30T21:21:12.518Z,12.84
2023-04-30T21:23:41.402Z,12.87
2023-04-30T21:26:09.969Z,12.84
2023-04-30T21:28:37.848Z,12.84
2023-04-30T21:31:07.352Z,12.75
2023-04-30T21:33:37.383Z,12.72
2023-04-30T21:36:05.695Z,12.81
2023-04-30T21:38:34.727Z,12.77
2023-04-30T21:41:02.652Z,12.80
2023-04-30T21:43:30.495Z,12.72
2023-04-30T21:46:03.016Z,12.71
2023-04-30T21:48:31.013Z,12.74
2023-04-30T21:50:58.966Z,12.70
2023-04-30T21:53:27.171Z,12.67
2023-04-30T21:55:55.239Z,12.67
2023-04-30T21:58:23.108Z,12.60
2023-04-30T22:00:51.091Z,12.75
2023-04-30T22:03:19.266Z,12.51
2023-04-30T22:05:47.436Z,12.65
2023-04-30T22:08:15.495Z,12.51
2023-04-30T22:10:43.389Z,12.49
2023-04-30T22:13:11.207Z,12.38
2023-04-30T22:15:47.701Z,12.46
2023-04-30T22:18:16.291Z,12.52
2023-04-30T22:20:44.446Z,12.54
2023-04-30T22:23:12.323Z,12.37
2023-04-30T22:25:40.238Z,12.26
2023-04-30T22:28:10.128Z,12.23
2023-04-30T22:30:39.459Z,12.21
2023-04-30T22:33:07.752Z,12.14
2023-04-30T22:35:38.630Z,11.89
2023-04-30T22:38:07.812Z,11.68
2023-04-30T22:40:39.360Z,11.49
2023-04-30T22:43:07.472Z,11.47
2023-04-30T22:45:40.252Z,11.47
2023-04-30T22:48:09.760Z,11.39
2023-04-30T22:50:38.091Z,11.40
2023-04-30T22:53:06.688Z,11.34
2023-04-30T22:55:35.759Z,11.53
2023-04-30T22:58:03.631Z,11.36
2023-04-30T23:00:31.502Z,11.12
2023-04-30T23:02:59.372Z,10.97
2023-04-30T23:05:27.235Z,11.09
2023-04-30T23:07:55.166Z,10.87
2023-04-30T23:10:23.249Z,10.91
2023-04-30T23:12:51.773Z,10.98
2023-04-30T23:15:19.600Z,10.91
2023-04-30T23:17:47.528Z,10.96
2023-04-30T23:20:15.754Z,10.88
2023-04-30T23:22:43.674Z,10.87
2023-04-30T23:25:12.211Z,10.82
2023-04-30T23:27:40.049Z,10.87
2023-04-30T23:30:09.496Z,10.85
2023-04-30T23:32:37.697Z,11.10
2023-04-30T23:35:07.784Z,10.87
2023-04-30T23:37:36.029Z,10.95
2023-04-30T23:40:07.369Z,11.02
2023-04-30T23:42:35.716Z,11.08
2023-04-30T23:45:03.804Z,10.91
2023-04-30T23:47:36.043Z,11.10
2023-04-30T23:50:04.371Z,10.92
2023-04-30T23:52:32.311Z,11.15
2023-04-30T23:55:00.216Z,11.08
2023-04-30T23:57:28.090Z,11.14
2023-04-30T23:59:56.739Z,11.23
